sensor_id;sensor_type;location;lat;lon;timestamp;pressure;altitude;pressure_sealevel;temperature;humidity
71457;BME280;59263;48.160;11.752;2023-05-11T00:02:11;95724.25;;;9.39;100.00
71457;BME280;59263;48.160;11.752;2023-05-11T00:04:36;95726.97;;;9.37;100.00
71457;BME280;59263;48.160;11.752;2023-05-11T00:07:02;95712.31;;;9.28;100.00
71457;BME280;59263;48.160;11.752;2023-05-11T00:09:27;95688.94;;;9.20;100.00
71457;BME280;59263;48.160;11.752;2023-05-11T00:11:52;95701.97;;;9.28;100.00
71457;BME280;59263;48.160;11.752;2023-05-11T00:14:18;95699.81;;;9.24;100.00
71457;BME280;59263;48.160;11.752;2023-05-11T00:16:43;95701.56;;;9.33;100.00
71457;BME280;59263;48.160;11.752;2023-05-11T00:19:09;95689.19;;;9.27;100.00
71457;BME280;59263;48.160;11.752;2023-05-11T00:21:35;95705.91;;;9.42;100.00
71457;BME280;59263;48.160;11.752;2023-05-11T00:24:00;95665.56;;;9.12;100.00
71457;BME280;59263;48.160;11.752;2023-05-11T00:26:25;95710.78;;;9.45;100.00
71457;BME280;59263;48.160;11.752;2023-05-11T00:28:51;95660.13;;;9.15;100.00
71457;BME280;59263;48.160;11.752;2023-05-11T00:31:16;95626.22;;;8.90;100.00
71457;BME280;59263;48.160;11.752;2023-05-11T00:33:41;95637.88;;;9.04;100.00
71457;BME280;59263;48.160;11.752;2023-05-11T00:36:07;95695.03;;;9.38;100.00
71457;BME280;59263;48.160;11.752;2023-05-11T00:38:32;95706.47;;;9.36;100.00
71457;BME280;59263;48.160;11.752;2023-05-11T00:40:58;95642.78;;;8.98;100.00
71457;BME280;59263;48.160;11.752;2023-05-11T00:43:24;95695.59;;;9.32;100.00
71457;BME280;59263;48.160;11.752;2023-05-11T00:45:49;95679.72;;;9.27;100.00
71457;BME280;59263;48.160;11.752;2023-05-11T00:48:16;95667.22;;;9.13;100.00
71457;BME280;59263;48.160;11.752;2023-05-11T00:50:41;95650.22;;;9.01;100.00
71457;BME280;59263;48.160;11.752;2023-05-11T00:53:07;95669.38;;;9.08;100.00
71457;BME280;59263;48.160;11.752;2023-05-11T00:55:33;95679.16;;;9.14;100.00
71457;BME280;59263;48.160;11.752;2023-05-11T00:57:58;95640.47;;;8.94;100.00
71457;BME280;59263;48.160;11.752;2023-05-11T01:00:24;95674.53;;;9.08;100.00
71457;BME280;59263;48.160;11.752;2023-05-11T01:02:50;95653.38;;;8.94;100.00
71457;BME280;59263;48.160;11.752;2023-05-11T01:05:15;95637.91;;;8.94;100.00
71457;BME280;59263;48.160;11.752;2023-05-11T01:10:40;95684.72;;;9.19;100.00
71457;BME280;59263;48.160;11.752;2023-05-11T01:13:18;95653.50;;;9.03;100.00
71457;BME280;59263;48.160;11.752;2023-05-11T01:15:50;95653.25;;;9.06;100.00
71457;BME280;59263;48.160;11.752;2023-05-11T01:18:39;95653.50;;;9.03;100.00
71457;BME280;59263;48.160;11.752;2023-05-11T01:21:07;95686.75;;;9.25;100.00
71457;BME280;59263;48.160;11.752;2023-05-11T01:29:49;95671.69;;;9.11;100.00
71457;BME280;59263;48.160;11.752;2023-05-11T01:32:26;95688.53;;;9.25;100.00
71457;BME280;59263;48.160;11.752;2023-05-11T01:35:02;95682.28;;;9.27;100.00
71457;BME280;59263;48.160;11.752;2023-05-11T01:37:30;95676.03;;;9.20;100.00
71457;BME280;59263;48.160;11.752;2023-05-11T01:40:00;95647.66;;;9.01;100.00
71457;BME280;59263;48.160;11.752;2023-05-11T01:42:34;95658.94;;;9.00;100.00
71457;BME280;59263;48.160;11.752;2023-05-11T01:45:00;95685.94;;;9.15;100.00
71457;BME280;59263;48.160;11.752;2023-05-11T01:47:28;95668.31;;;9.01;100.00
71457;BME280;59263;48.160;11.752;2023-05-11T01:49:56;95658.66;;;9.03;100.00
71457;BME280;59263;48.160;11.752;2023-05-11T01:52:24;95674.97;;;9.13;100.00
71457;BME280;59263;48.160;11.752;2023-05-11T01:54:51;95678.63;;;9.10;100.00
71457;BME280;59263;48.160;11.752;2023-05-11T01:57:19;95669.25;;;9.00;100.00
71457;BME280;59263;48.160;11.752;2023-05-11T01:59:45;95665.59;;;9.02;100.00
71457;BME280;59263;48.160;11.752;2023-05-11T02:02:13;95672.66;;;9.10;100.00
71457;BME280;59263;48.160;11.752;2023-05-11T02:04:39;95663.41;;;9.07;100.00
71457;BME280;59263;48.160;11.752;2023-05-11T02:07:07;95687.19;;;9.20;100.00
71457;BME280;59263;48.160;11.752;2023-05-11T02:09:35;95676.84;;;9.11;100.00
71457;BME280;59263;48.160;11.752;2023-05-11T02:12:01;95677.66;;;9.11;100.00
71457;BME280;59263;48.160;11.752;2023-05-11T02:14:28;95615.63;;;8.74;100.00
71457;BME280;59263;48.160;11.752;2023-05-11T02:16:59;95665.88;;;9.09;100.00
71457;BME280;59263;48.160;11.752;2023-05-11T02:19:27;95648.50;;;8.91;100.00
71457;BME280;59263;48.160;11.752;2023-05-11T02:21:54;95680.78;;;9.15;100.00
71457;BME280;59263;48.160;11.752;2023-05-11T02:24:22;95679.84;;;9.16;100.00
71457;BME280;59263;48.160;11.752;2023-05-11T02:26:49;95633.28;;;8.88;100.00
71457;BME280;59263;48.160;11.752;2023-05-11T02:29:14;95609.94;;;8.70;100.00
71457;BME280;59263;48.160;11.752;2023-05-11T02:31:43;95647.13;;;8.97;100.00
71457;BME280;59263;48.160;11.752;2023-05-11T02:34:25;95679.16;;;9.14;100.00
71457;BME280;59263;48.160;11.752;2023-05-11T02:36:58;95663.13;;;9.10;100.00
71457;BME280;59263;48.160;11.752;2023-05-11T02:39:30;95635.59;;;8.91;100.00
71457;BME280;59263;48.160;11.752;2023-05-11T02:41:59;95669.53;;;9.06;100.00
71457;BME280;59263;48.160;11.752;2023-05-11T02:44:30;95664.78;;;9.02;100.00
71457;BME280;59263;48.160;11.752;2023-05-11T02:46:59;95659.63;;;9.02;100.00
71457;BME280;59263;48.160;11.752;2023-05-11T02:49:28;95644.69;;;8.95;100.00
71457;BME280;59263;48.160;11.752;2023-05-11T02:51:55;95655.28;;;9.02;100.00
71457;BME280;59263;48.160;11.752;2023-05-11T02:54:22;95663.28;;;9.09;100.00
71457;BME280;59263;48.160;11.752;2023-05-11T02:56:50;95646.56;;;9.03;100.00
71457;BME280;59263;48.160;11.752;2023-05-11T02:59:15;95666.66;;;9.19;100.00
71457;BME280;59263;48.160;11.752;2023-05-11T03:01:41;95654.59;;;9.10;100.00
71457;BME280;59263;48.160;11.752;2023-05-11T03:04:07;95619.72;;;8.86;100.00
71457;BME280;59263;48.160;11.752;2023-05-11T03:06:32;95657.44;;;9.07;100.00
71457;BME280;59263;48.160;11.752;2023-05-11T03:08:59;95642.22;;;9.04;100.00
71457;BME280;59263;48.160;11.752;2023-05-11T03:11:25;95643.84;;;9.05;100.00
71457;BME280;59263;48.160;11.752;2023-05-11T03:13:51;95641.69;;;9.00;100.00
71457;BME280;59263;48.160;11.752;2023-05-11T03:16:18;95653.63;;;9.11;100.00
71457;BME280;59263;48.160;11.752;2023-05-11T03:18:44;95657.59;;;9.05;100.00
71457;BME280;59263;48.160;11.752;2023-05-11T03:21:10;95657.44;;;9.07;100.00
71457;BME280;59263;48.160;11.752;2023-05-11T03:23:36;95628.94;;;8.89;100.00
71457;BME280;59263;48.160;11.752;2023-05-11T03:26:05;95621.06;;;8.81;100.00
71457;BME280;59263;48.160;11.752;2023-05-11T03:28:31;95654.59;;;9.00;100.00
71457;BME280;59263;48.160;11.752;2023-05-11T03:30:57;95631.66;;;8.87;100.00
71457;BME280;59263;48.160;11.752;2023-05-11T03:33:22;95611.56;;;8.81;100.00
71457;BME280;59263;48.160;11.752;2023-05-11T03:35:49;95627.56;;;8.94;100.00
71457;BME280;59263;48.160;11.752;2023-05-11T03:38:15;95605.03;;;8.77;100.00
71457;BME280;59263;48.160;11.752;2023-05-11T03:40:42;95593.38;;;8.73;100.00
71457;BME280;59263;48.160;11.752;2023-05-11T03:43:10;95642.22;;;9.04;100.00
71457;BME280;59263;48.160;11.752;2023-05-11T03:45:40;95638.44;;;8.98;100.00
71457;BME280;59263;48.160;11.752;2023-05-11T03:48:07;95599.06;;;8.67;100.00
71457;BME280;59263;48.160;11.752;2023-05-11T03:50:33;95601.81;;;8.75;100.00
71457;BME280;59263;48.160;11.752;2023-05-11T03:52:59;95632.47;;;8.88;100.00
71457;BME280;59263;48.160;11.752;2023-05-11T03:55:25;95603.41;;;8.66;100.00
71457;BME280;59263;48.160;11.752;2023-05-11T03:57:51;95591.22;;;8.59;100.00
71457;BME280;59263;48.160;11.752;2023-05-11T04:00:16;95608.03;;;8.63;100.00
71457;BME280;59263;48.160;11.752;2023-05-11T04:02:42;95640.47;;;8.85;100.00
71457;BME280;59263;48.160;11.752;2023-05-11T04:05:09;95603.31;;;8.68;100.00
71457;BME280;59263;48.160;11.752;2023-05-11T04:07:36;95637.34;;;8.81;100.00
71457;BME280;59263;48.160;11.752;2023-05-11T04:10:03;95626.38;;;8.79;100.00
71457;BME280;59263;48.160;11.752;2023-05-11T04:12:28;95613.47;;;8.69;100.00
71457;BME280;59263;48.160;11.752;2023-05-11T04:14:54;95587.69;;;8.50;100.00
71457;BME280;59263;48.160;11.752;2023-05-11T04:17:19;95637.34;;;8.81;100.00
71457;BME280;59263;48.160;11.752;2023-05-11T04:19:44;95637.09;;;8.84;100.00
71457;BME280;59263;48.160;11.752;2023-05-11T04:22:10;95609.66;;;8.64;100.00
71457;BME280;59263;48.160;11.752;2023-05-11T04:24:36;95614.53;;;8.67;100.00
71457;BME280;59263;48.160;11.752;2023-05-11T04:27:02;95634.38;;;8.76;100.00
71457;BME280;59263;48.160;11.752;2023-05-11T04:29:28;95615.38;;;8.58;100.00
71457;BME280;59263;48.160;11.752;2023-05-11T04:31:54;95601.13;;;8.54;100.00
71457;BME280;59263;48.160;11.752;2023-05-11T04:34:20;95605.59;;;8.52;100.00
71457;BME280;59263;48.160;11.752;2023-05-11T04:36:49;95579.28;;;8.38;100.00
71457;BME280;59263;48.160;11.752;2023-05-11T04:39:15;95562.69;;;8.31;100.00
71457;BME280;59263;48.160;11.752;2023-05-11T04:41:42;95636.84;;;8.68;100.00
71457;BME280;59263;48.160;11.752;2023-05-11T04:44:07;95645.91;;;8.72;100.00
71457;BME280;59263;48.160;11.752;2023-05-11T04:46:33;95622.69;;;8.62;100.00
71457;BME280;59263;48.160;11.752;2023-05-11T04:48:58;95638.72;;;8.66;100.00
71457;BME280;59263;48.160;11.752;2023-05-11T04:51:24;95618.63;;;8.60;100.00
71457;BME280;59263;48.160;11.752;2023-05-11T04:53:49;95607.22;;;8.53;100.00
71457;BME280;59263;48.160;11.752;2023-05-11T04:56:14;95597.72;;;8.43;100.00
71457;BME280;59263;48.160;11.752;2023-05-11T04:58:40;95615.63;;;8.55;100.00
71457;BME280;59263;48.160;11.752;2023-05-11T05:01:05;95605.59;;;8.52;100.00
71457;BME280;59263;48.160;11.752;2023-05-11T05:03:30;95638.44;;;8.69;100.00
71457;BME280;59263;48.160;11.752;2023-05-11T05:05:55;95646.84;;;8.71;100.00
71457;BME280;59263;48.160;11.752;2023-05-11T05:08:21;95643.88;;;8.66;100.00
71457;BME280;59263;48.160;11.752;2023-05-11T05:10:46;95611.03;;;8.39;100.00
71457;BME280;59263;48.160;11.752;2023-05-11T05:13:12;95598.25;;;8.37;100.00
71457;BME280;59263;48.160;11.752;2023-05-11T05:15:37;95636.56;;;8.61;100.00
71457;BME280;59263;48.160;11.752;2023-05-11T05:18:03;95636.28;;;8.64;100.00
71457;BME280;59263;48.160;11.752;2023-05-11T05:20:28;95636.94;;;8.66;100.00
71457;BME280;59263;48.160;11.752;2023-05-11T05:22:54;95629.22;;;8.47;100.00
71457;BME280;59263;48.160;11.752;2023-05-11T05:25:20;95658.81;;;8.72;100.00
71457;BME280;59263;48.160;11.752;2023-05-11T05:27:46;95629.59;;;8.52;100.00
71457;BME280;59263;48.160;11.752;2023-05-11T05:30:11;95627.03;;;8.62;100.00
71457;BME280;59263;48.160;11.752;2023-05-11T05:32:37;95655.13;;;8.75;100.00
71457;BME280;59263;48.160;11.752;2023-05-11T05:35:02;95670.22;;;8.89;100.00
71457;BME280;59263;48.160;11.752;2023-05-11T05:37:28;95642.66;;;8.70;100.00
71457;BME280;59263;48.160;11.752;2023-05-11T05:39:53;95665.75;;;8.91;100.00
71457;BME280;59263;48.160;11.752;2023-05-11T05:42:18;95660.56;;;8.81;100.00
71457;BME280;59263;48.160;11.752;2023-05-11T05:44:44;95636.97;;;8.76;100.00
71457;BME280;59263;48.160;11.752;2023-05-11T05:47:09;95611.56;;;8.62;100.00
71457;BME280;59263;48.160;11.752;2023-05-11T05:49:35;95613.22;;;8.53;100.00
71457;BME280;59263;48.160;11.752;2023-05-11T05:52:00;95640.06;;;8.70;100.00
71457;BME280;59263;48.160;11.752;2023-05-11T05:54:25;95628.94;;;8.60;100.00
71457;BME280;59263;48.160;11.752;2023-05-11T05:56:51;95628.41;;;8.66;100.00
71457;BME280;59263;48.160;11.752;2023-05-11T05:59:16;95627.56;;;8.56;100.00
71457;BME280;59263;48.160;11.752;2023-05-11T06:01:43;95629.50;;;8.54;100.00
71457;BME280;59263;48.160;11.752;2023-05-11T06:04:12;95606.41;;;8.42;100.00
71457;BME280;59263;48.160;11.752;2023-05-11T06:06:37;95608.84;;;8.44;100.00
71457;BME280;59263;48.160;11.752;2023-05-11T06:09:03;95646.84;;;8.71;100.00
71457;BME280;59263;48.160;11.752;2023-05-11T06:11:28;95638.69;;;8.56;100.00
71457;BME280;59263;48.160;11.752;2023-05-11T06:13:53;95661.41;;;8.72;100.00
71457;BME280;59263;48.160;11.752;2023-05-11T06:16:18;95635.75;;;8.61;100.00
71457;BME280;59263;48.160;11.752;2023-05-11T06:18:45;95673.75;;;8.78;100.00
71457;BME280;59263;48.160;11.752;2023-05-11T06:21:10;95669.66;;;8.66;100.00
71457;BME280;59263;48.160;11.752;2023-05-11T06:23:35;95680.94;;;8.75;100.00
71457;BME280;59263;48.160;11.752;2023-05-11T06:26:01;95642.25;;;8.55;100.00
71457;BME280;59263;48.160;11.752;2023-05-11T06:28:26;95668.88;;;8.75;100.00
71457;BME280;59263;48.160;11.752;2023-05-11T06:30:55;95671.84;;;8.80;100.00
71457;BME280;59263;48.160;11.752;2023-05-11T06:33:22;95678.91;;;8.78;100.00
71457;BME280;59263;48.160;11.752;2023-05-11T06:35:47;95645.50;;;8.57;100.00
71457;BME280;59263;48.160;11.752;2023-05-11T06:38:12;95658.81;;;8.62;100.00
71457;BME280;59263;48.160;11.752;2023-05-11T06:40:38;95672.38;;;8.74;100.00
71457;BME280;59263;48.160;11.752;2023-05-11T06:43:03;95638.44;;;8.50;100.00
71457;BME280;59263;48.160;11.752;2023-05-11T06:45:28;95670.50;;;8.76;100.00
71457;BME280;59263;48.160;11.752;2023-05-11T06:47:54;95667.22;;;8.74;100.00
71457;BME280;59263;48.160;11.752;2023-05-11T06:50:19;95659.91;;;8.69;100.00
71457;BME280;59263;48.160;11.752;2023-05-11T06:52:44;95675.09;;;8.82;100.00
71457;BME280;59263;48.160;11.752;2023-05-11T06:55:11;95682.16;;;8.80;100.00
71457;BME280;59263;48.160;11.752;2023-05-11T06:57:38;95662.06;;;8.74;100.00
71457;BME280;59263;48.160;11.752;2023-05-11T07:00:04;95653.78;;;8.61;100.00
71457;BME280;59263;48.160;11.752;2023-05-11T07:02:29;95653.22;;;8.67;100.00
71457;BME280;59263;48.160;11.752;2023-05-11T07:04:56;95682.31;;;8.88;100.00
71457;BME280;59263;48.160;11.752;2023-05-11T07:07:22;95644.41;;;8.60;100.00
71457;BME280;59263;48.160;11.752;2023-05-11T07:09:48;95661.94;;;8.66;100.00
71457;BME280;59263;48.160;11.752;2023-05-11T07:12:13;95682.16;;;8.80;100.00
71457;BME280;59263;48.160;11.752;2023-05-11T07:14:39;95670.22;;;8.79;100.00
71457;BME280;59263;48.160;11.752;2023-05-11T07:17:04;95655.03;;;8.76;100.00
71457;BME280;59263;48.160;11.752;2023-05-11T07:19:29;95657.72;;;8.75;100.00
71457;BME280;59263;48.160;11.752;2023-05-11T07:21:55;95660.72;;;8.70;100.00
71457;BME280;59263;48.160;11.752;2023-05-11T07:24:20;95671.16;;;8.78;100.00
71457;BME280;59263;48.160;11.752;2023-05-11T07:26:45;95660.97;;;8.77;100.00
71457;BME280;59263;48.160;11.752;2023-05-11T07:29:11;95660.31;;;8.84;100.00
71457;BME280;59263;48.160;11.752;2023-05-11T07:31:36;95678.22;;;8.95;100.00
71457;BME280;59263;48.160;11.752;2023-05-11T07:34:01;95682.44;;;8.96;100.00
71457;BME280;59263;48.160;11.752;2023-05-11T07:36:27;95664.25;;;8.88;100.00
71457;BME280;59263;48.160;11.752;2023-05-11T07:38:52;95677.97;;;8.99;100.00
71457;BME280;59263;48.160;11.752;2023-05-11T07:41:17;95678.09;;;9.07;100.00
71457;BME280;59263;48.160;11.752;2023-05-11T07:43:43;95668.59;;;8.98;100.00
71457;BME280;59263;48.160;11.752;2023-05-11T07:46:08;95632.72;;;8.85;100.00
71457;BME280;59263;48.160;11.752;2023-05-11T07:48:34;95666.53;;;9.11;100.00
71457;BME280;59263;48.160;11.752;2023-05-11T07:50:59;95677.53;;;9.13;100.00
71457;BME280;59263;48.160;11.752;2023-05-11T07:53:25;95658.13;;;9.09;100.00
71457;BME280;59263;48.160;11.752;2023-05-11T07:55:51;95658.94;;;9.00;100.00
71457;BME280;59263;48.160;11.752;2023-05-11T07:58:16;95660.41;;;9.12;100.00
71457;BME280;59263;48.160;11.752;2023-05-11T08:00:41;95672.63;;;9.29;100.00
71457;BME280;59263;48.160;11.752;2023-05-11T08:03:07;95687.84;;;9.32;100.00
71457;BME280;59263;48.160;11.752;2023-05-11T08:05:32;95674.25;;;9.30;100.00
71457;BME280;59263;48.160;11.752;2023-05-11T08:08:01;95667.47;;;9.29;100.00
71457;BME280;59263;48.160;11.752;2023-05-11T08:10:27;95675.03;;;9.40;100.00
71457;BME280;59263;48.160;11.752;2023-05-11T08:12:52;95662.28;;;9.39;100.00
71457;BME280;59263;48.160;11.752;2023-05-11T08:15:17;95663.09;;;9.39;100.00
71457;BME280;59263;48.160;11.752;2023-05-11T08:17:43;95666.34;;;9.41;100.00
71457;BME280;59263;48.160;11.752;2023-05-11T08:20:10;95659.81;;;9.47;100.00
71457;BME280;59263;48.160;11.752;2023-05-11T08:22:35;95671.47;;;9.61;100.00
71457;BME280;59263;48.160;11.752;2023-05-11T08:25:01;95653.84;;;9.47;100.00
71457;BME280;59263;48.160;11.752;2023-05-11T08:27:27;95654.38;;;9.50;100.00
71457;BME280;59263;48.160;11.752;2023-05-11T08:29:54;95654.63;;;9.57;100.00
71457;BME280;59263;48.160;11.752;2023-05-11T08:32:19;95655.72;;;9.54;100.00
71457;BME280;59263;48.160;11.752;2023-05-11T08:34:45;95675.41;;;9.65;100.00
71457;BME280;59263;48.160;11.752;2023-05-11T08:37:11;95662.22;;;9.58;100.00
71457;BME280;59263;48.160;11.752;2023-05-11T08:39:36;95644.97;;;9.59;100.00
71457;BME280;59263;48.160;11.752;2023-05-11T08:42:02;95676.06;;;9.67;100.00
71457;BME280;59263;48.160;11.752;2023-05-11T08:44:31;95661.25;;;9.59;100.00
71457;BME280;59263;48.160;11.752;2023-05-11T08:46:57;95668.88;;;9.61;100.00
71457;BME280;59263;48.160;11.752;2023-05-11T08:49:24;95665.34;;;9.62;100.00
71457;BME280;59263;48.160;11.752;2023-05-11T08:51:49;95667.38;;;9.58;100.00
71457;BME280;59263;48.160;11.752;2023-05-11T08:54:15;95640.25;;;9.44;100.00
71457;BME280;59263;48.160;11.752;2023-05-11T08:56:40;95658.84;;;9.58;100.00
71457;BME280;59263;48.160;11.752;2023-05-11T08:59:06;95674.81;;;9.71;100.00
71457;BME280;59263;48.160;11.752;2023-05-11T09:01:34;95668.47;;;9.65;100.00
71457;BME280;59263;48.160;11.752;2023-05-11T09:03:59;95663.31;;;9.56;100.00
71457;BME280;59263;48.160;11.752;2023-05-11T09:06:25;95665.63;;;9.59;100.00
71457;BME280;59263;48.160;11.752;2023-05-11T09:08:52;95657.88;;;9.59;100.00
71457;BME280;59263;48.160;11.752;2023-05-11T09:11:17;95666.50;;;9.77;100.00
71457;BME280;59263;48.160;11.752;2023-05-11T09:13:43;95657.25;;;9.75;100.00
71457;BME280;59263;48.160;11.752;2023-05-11T09:16:08;95656.19;;;9.77;100.00
71457;BME280;59263;48.160;11.752;2023-05-11T09:18:34;95636.03;;;9.81;100.00
71457;BME280;59263;48.160;11.752;2023-05-11T09:21:00;95669.00;;;9.97;100.00
71457;BME280;59263;48.160;11.752;2023-05-11T09:23:26;95634.97;;;9.74;100.00
71457;BME280;59263;48.160;11.752;2023-05-11T09:25:52;95646.63;;;9.87;100.00
71457;BME280;59263;48.160;11.752;2023-05-11T09:28:23;95663.19;;;9.94;100.00
71457;BME280;59263;48.160;11.752;2023-05-11T09:30:49;95660.59;;;9.94;100.00
71457;BME280;59263;48.160;11.752;2023-05-11T09:33:23;95658.75;;;10.05;100.00
71457;BME280;59263;48.160;11.752;2023-05-11T09:35:49;95668.41;;;10.12;100.00
71457;BME280;59263;48.160;11.752;2023-05-11T09:38:15;95643.31;;;9.95;100.00
71457;BME280;59263;48.160;11.752;2023-05-11T09:40:51;95647.00;;;9.92;100.00
71457;BME280;59263;48.160;11.752;2023-05-11T09:43:20;95657.22;;;9.94;100.00
71457;BME280;59263;48.160;11.752;2023-05-11T09:45:48;95649.88;;;9.89;100.00
71457;BME280;59263;48.160;11.752;2023-05-11T09:50:48;95666.91;;;10.10;100.00
71457;BME280;59263;48.160;11.752;2023-05-11T09:53:14;95634.34;;;9.89;100.00
71457;BME280;59263;48.160;11.752;2023-05-11T09:55:53;95621.63;;;9.78;100.00
71457;BME280;59263;48.160;11.752;2023-05-11T10:00:49;95642.50;;;9.94;100.00
71457;BME280;59263;48.160;11.752;2023-05-11T10:03:15;95646.28;;;10.00;100.00
71457;BME280;59263;48.160;11.752;2023-05-11T10:05:55;95649.03;;;9.99;100.00
71457;BME280;59263;48.160;11.752;2023-05-11T10:08:29;95654.75;;;9.92;100.00
71457;BME280;59263;48.160;11.752;2023-05-11T10:10:56;95651.09;;;9.85;100.00
71457;BME280;59263;48.160;11.752;2023-05-11T10:13:22;95664.13;;;9.93;100.00
71457;BME280;59263;48.160;11.752;2023-05-11T10:15:50;95662.13;;;9.87;100.00
71457;BME280;59263;48.160;11.752;2023-05-11T10:18:16;95651.78;;;9.87;100.00
71457;BME280;59263;48.160;11.752;2023-05-11T10:20:43;95664.84;;;9.86;100.00
71457;BME280;59263;48.160;11.752;2023-05-11T10:23:10;95649.28;;;9.68;100.00
71457;BME280;59263;48.160;11.752;2023-05-11T10:25:36;95663.56;;;9.72;100.00
71457;BME280;59263;48.160;11.752;2023-05-11T10:28:02;95661.91;;;9.71;100.00
71457;BME280;59263;48.160;11.752;2023-05-11T10:30:28;95670.06;;;9.76;100.00
71457;BME280;59263;48.160;11.752;2023-05-11T10:32:54;95647.38;;;9.70;100.00
71457;BME280;59263;48.160;11.752;2023-05-11T10:35:20;95649.28;;;9.68;100.00
71457;BME280;59263;48.160;11.752;2023-05-11T10:37:46;95670.44;;;9.81;100.00
71457;BME280;59263;48.160;11.752;2023-05-11T10:40:12;95663.09;;;9.86;100.00
71457;BME280;59263;48.160;11.752;2023-05-11T10:45:34;95659.44;;;9.79;100.00
71457;BME280;59263;48.160;11.752;2023-05-11T10:48:33;95661.84;;;9.90;100.00
71457;BME280;59263;48.160;11.752;2023-05-11T10:54:20;95660.19;;;9.89;100.00
71457;BME280;59263;48.160;11.752;2023-05-11T11:02:33;95650.34;;;10.03;100.00
71457;BME280;59263;48.160;11.752;2023-05-11T11:04:59;95631.56;;;10.01;100.00
71457;BME280;59263;48.160;11.752;2023-05-11T11:07:30;95650.31;;;10.12;100.00
71457;BME280;59263;48.160;11.752;2023-05-11T11:10:00;95644.31;;;10.12;100.00
71457;BME280;59263;48.160;11.752;2023-05-11T11:12:29;95629.41;;;10.06;100.00
71457;BME280;59263;48.160;11.752;2023-05-11T11:15:03;95639.91;;;10.22;100.00
71457;BME280;59263;48.160;11.752;2023-05-11T11:17:31;95651.88;;;10.23;100.00
71457;BME280;59263;48.160;11.752;2023-05-11T11:20:05;95653.00;;;10.21;100.00
71457;BME280;59263;48.160;11.752;2023-05-11T11:25:06;95651.31;;;10.29;100.00
71457;BME280;59263;48.160;11.752;2023-05-11T11:32:49;95639.13;;;10.12;100.00
71457;BME280;59263;48.160;11.752;2023-05-11T11:38:14;95654.31;;;10.25;100.00
71457;BME280;59263;48.160;11.752;2023-05-11T11:40:44;95650.00;;;10.25;100.00
71457;BME280;59263;48.160;11.752;2023-05-11T11:43:19;95648.63;;;10.21;100.00
71457;BME280;59263;48.160;11.752;2023-05-11T11:51:03;95643.16;;;10.24;100.00
71457;BME280;59263;48.160;11.752;2023-05-11T11:55:59;95628.94;;;10.10;100.00
71457;BME280;59263;48.160;11.752;2023-05-11T12:01:10;95649.28;;;10.23;100.00
71457;BME280;59263;48.160;11.752;2023-05-11T12:03:37;95637.53;;;10.11;100.00
71457;BME280;59263;48.160;11.752;2023-05-11T12:06:09;95652.56;;;10.25;100.00
71457;BME280;59263;48.160;11.752;2023-05-11T12:08:36;95619.88;;;10.06;100.00
71457;BME280;59263;48.160;11.752;2023-05-11T12:11:04;95648.53;;;10.13;100.00
71457;BME280;59263;48.160;11.752;2023-05-11T12:13:31;95639.44;;;10.09;100.00
71457;BME280;59263;48.160;11.752;2023-05-11T12:16:10;95650.84;;;10.16;100.00
71457;BME280;59263;48.160;11.752;2023-05-11T12:18:36;95643.78;;;10.08;100.00
71457;BME280;59263;48.160;11.752;2023-05-11T12:21:02;95597.81;;;9.84;100.00
71457;BME280;59263;48.160;11.752;2023-05-11T12:23:28;95638.47;;;10.10;100.00
71457;BME280;59263;48.160;11.752;2023-05-11T12:26:05;95560.25;;;9.62;100.00
71457;BME280;59263;48.160;11.752;2023-05-11T12:28:33;95629.41;;;10.06;100.00
71457;BME280;59263;48.160;11.752;2023-05-11T12:36:33;95612.44;;;9.93;100.00
71457;BME280;59263;48.160;11.752;2023-05-11T12:38:58;95556.47;;;9.57;100.00
71457;BME280;59263;48.160;11.752;2023-05-11T12:41:24;95609.19;;;9.91;100.00
71457;BME280;59263;48.160;11.752;2023-05-11T12:43:51;95606.38;;;9.85;100.00
71457;BME280;59263;48.160;11.752;2023-05-11T12:46:18;95593.19;;;9.78;100.00
71457;BME280;59263;48.160;11.752;2023-05-11T12:48:47;95573.41;;;9.69;100.00
71457;BME280;59263;48.160;11.752;2023-05-11T12:54:11;95601.06;;;9.86;100.00
71457;BME280;59263;48.160;11.752;2023-05-11T12:56:47;95613.47;;;10.01;100.00
71457;BME280;59263;48.160;11.752;2023-05-11T12:59:25;95632.06;;;10.14;100.00
71457;BME280;59263;48.160;11.752;2023-05-11T13:01:51;95632.91;;;10.05;100.00
71457;BME280;59263;48.160;11.752;2023-05-11T13:04:16;95607.84;;;9.87;100.00
71457;BME280;59263;48.160;11.752;2023-05-11T13:06:45;95574.38;;;9.68;100.00
71457;BME280;59263;48.160;11.752;2023-05-11T13:09:20;95624.22;;;10.06;100.00
71457;BME280;59263;48.160;11.752;2023-05-11T13:11:46;95585.56;;;9.86;100.00
71457;BME280;59263;48.160;11.752;2023-05-11T13:14:15;95589.38;;;9.82;100.00
71457;BME280;59263;48.160;11.752;2023-05-11T13:16:51;95597.88;;;9.92;100.00
71457;BME280;59263;48.160;11.752;2023-05-11T13:19:26;95549.09;;;9.62;100.00
71457;BME280;59263;48.160;11.752;2023-05-11T13:21:52;95569.56;;;9.73;100.00
71457;BME280;59263;48.160;11.752;2023-05-11T13:24:21;95615.53;;;9.97;100.00
71457;BME280;59263;48.160;11.752;2023-05-11T13:26:47;95586.56;;;9.76;100.00
71457;BME280;59263;48.160;11.752;2023-05-11T13:29:12;95544.03;;;9.42;100.00
71457;BME280;59263;48.160;11.752;2023-05-11T13:31:44;95532.66;;;9.35;100.00
71457;BME280;59263;48.160;11.752;2023-05-11T13:34:10;95583.22;;;9.65;100.00
71457;BME280;59263;48.160;11.752;2023-05-11T13:36:36;95623.38;;;9.87;100.00
71457;BME280;59263;48.160;11.752;2023-05-11T13:39:02;95562.97;;;9.61;100.00
71457;BME280;59263;48.160;11.752;2023-05-11T13:41:27;95545.22;;;9.48;100.00
71457;BME280;59263;48.160;11.752;2023-05-11T13:43:52;95529.47;;;9.41;100.00